Airfield :
LOGIN :

Register | Disclaimer

   EN    FR    IT 

 










Legend :    VFR   Marginal VFR   IFR   Intensive IFR   Very Intensive IFR
Visi :
Ceiling :
>= 8 km
>= 3000ft
5 to 8 km
1000 to 3000 ft
1500m to 5 km
500 to 1000 ft
800 to 1500m
200 to 500 ft
< 800m
< 200 ft
Symbols :   Thunderstorms  Fog  Heavy snow  Heavy precipitations  Wind > 20 kt
SIGMETs :     Misc.  Thunderstorms  Icing  Turbulence  Mountain Waves  Volcanic Ashes






- Airport Elevation : 538 ft
- IATA code : TNF


LFPN - Toussus Le Noble

CURRENT METAR :
  • 150530Z AUTO 22004KT 9999 OVC007 13/12 Q1006 NOSIG

EXPIRED METARs :
  • 150500Z AUTO 21005KT 9999 BKN007 OVC018 13/12 Q1006
  • 150430Z AUTO 21006KT 9999 BKN006 OVC200 13/12 Q1006
  • 150400Z AUTO 20004KT 9999 BKN005 OVC094 13/12 Q1006
  • 150330Z AUTO 20004KT 9999 OVC005 13/12 Q1006
  • 150300Z AUTO 21005KT 9999 SCT005 BKN160 OVC180 13/12 Q1006

TAF TAF LFPN
Valid from the 15 at 06:00 until the 15 at 15:00 UTC


150500Z 1506/1515 20010KT 9999 SCT016 BKN060
PROB40
TEMPO 1506/1509 -RA BKN009
PROB30
TEMPO 1506/1507 BKN006
BECMG 1509/1512 SCT025
ATIS : +33 1 39 56 54 70



MET'MAP, your aeronautical weather chart ! - Copyright ORBIFLY December 2007 - Disclaimer

ORBIFLY MET'MAP TEAM :

Programming & Development : Alexandra Zaïnal
Concept & Development : Baudouin d'Aumeries
Co-Development & Prog : Marc-Olivier Méhu
Technical & hardware support : Manuel Goepfert

Contact : metmap@orbifly.com




SOURCES & CREDITS :

   NOAA